createdAt,value
2017-05-24T00:01:23.158Z,7.14
2017-05-24T00:03:51.450Z,5.64
2017-05-24T00:06:19.780Z,6.54
2017-05-24T00:08:48.063Z,6.24
2017-05-24T00:11:16.416Z,7.50
2017-05-24T00:13:44.737Z,5.96
2017-05-24T00:16:13.015Z,6.48
2017-05-24T00:18:41.322Z,5.86
2017-05-24T00:21:09.616Z,6.92
2017-05-24T00:23:37.931Z,6.72
2017-05-24T00:26:06.267Z,5.98
2017-05-24T00:28:34.562Z,6.58
2017-05-24T00:31:02.869Z,6.62
2017-05-24T00:33:31.214Z,5.56
2017-05-24T00:35:59.490Z,6.62
2017-05-24T00:38:27.823Z,5.84
2017-05-24T00:40:56.111Z,5.60
2017-05-24T00:43:24.394Z,5.22
2017-05-24T00:45:53.025Z,5.32
2017-05-24T00:48:21.308Z,4.94
2017-05-24T00:50:49.621Z,5.66
2017-05-24T00:53:17.904Z,6.58
2017-05-24T00:55:46.452Z,5.06
2017-05-24T00:58:14.771Z,5.42
2017-05-24T01:00:43.052Z,5.00
2017-05-24T01:03:11.773Z,5.58
2017-05-24T01:05:40.107Z,6.04
2017-05-24T01:08:08.467Z,5.92
2017-05-24T01:10:37.119Z,5.52
2017-05-24T01:13:05.404Z,5.10
2017-05-24T01:15:33.706Z,5.70
2017-05-24T01:18:02.057Z,5.40
2017-05-24T01:20:30.383Z,5.42
2017-05-24T01:22:58.664Z,4.78
2017-05-24T01:25:26.939Z,5.18
2017-05-24T01:27:55.258Z,5.24
2017-05-24T01:30:23.539Z,4.54
2017-05-24T01:32:51.848Z,5.00
2017-05-24T01:35:20.187Z,5.06
2017-05-24T01:37:48.472Z,5.62
2017-05-24T01:40:16.797Z,4.76
2017-05-24T01:42:45.118Z,5.70
2017-05-24T01:45:13.406Z,5.26
2017-05-24T01:47:41.729Z,5.44
2017-05-24T01:50:10.010Z,4.52
2017-05-24T01:52:38.338Z,5.00
2017-05-24T01:55:06.627Z,4.60
2017-05-24T01:57:35.201Z,4.30
2017-05-24T02:00:03.541Z,4.54
2017-05-24T02:02:31.824Z,5.78
2017-05-24T02:05:00.144Z,4.78
2017-05-24T02:07:28.436Z,3.92
2017-05-24T02:09:56.715Z,4.88
2017-05-24T02:12:25.047Z,4.72
2017-05-24T02:14:53.390Z,4.78
2017-05-24T02:17:21.687Z,4.50
2017-05-24T02:19:49.988Z,4.70
2017-05-24T02:22:18.299Z,3.68
2017-05-24T02:24:46.590Z,4.72
2017-05-24T02:27:14.939Z,5.02
2017-05-24T02:29:43.296Z,5.20
2017-05-24T02:32:11.566Z,3.40
2017-05-24T02:34:39.950Z,4.38
2017-05-24T02:37:08.243Z,5.08
2017-05-24T02:39:36.838Z,4.08
2017-05-24T02:42:05.173Z,3.90
2017-05-24T02:44:33.446Z,4.54
2017-05-24T02:47:01.728Z,3.06
2017-05-24T02:49:30.057Z,3.80
2017-05-24T02:51:58.349Z,4.00
2017-05-24T02:54:26.633Z,4.22
2017-05-24T02:56:55.272Z,3.60
2017-05-24T02:59:23.563Z,3.88
2017-05-24T03:01:51.844Z,4.16
2017-05-24T03:04:20.388Z,5.10
2017-05-24T03:06:48.672Z,3.62
2017-05-24T03:09:16.951Z,4.06
2017-05-24T03:11:45.270Z,3.70
2017-05-24T03:14:13.549Z,3.44
2017-05-24T03:16:41.836Z,4.22
2017-05-24T03:19:10.156Z,4.68
2017-05-24T03:21:38.455Z,4.80
2017-05-24T03:24:06.780Z,4.04
2017-05-24T03:26:35.096Z,4.22
2017-05-24T03:29:03.387Z,4.10
2017-05-24T03:31:31.968Z,3.80
2017-05-24T03:34:00.260Z,4.68
2017-05-24T03:36:28.542Z,4.40
2017-05-24T03:38:56.863Z,4.28
2017-05-24T03:41:25.150Z,4.52
2017-05-24T03:43:53.484Z,3.86
2017-05-24T03:46:21.769Z,4.74
2017-05-24T03:48:50.056Z,4.44
2017-05-24T03:51:18.394Z,3.92
2017-05-24T03:53:46.679Z,4.38
2017-05-24T03:56:14.976Z,3.80
2017-05-24T03:58:43.309Z,3.64
2017-05-24T04:01:11.596Z,4.06
2017-05-24T04:03:39.885Z,3.72
2017-05-24T04:06:08.235Z,4.66
2017-05-24T04:08:36.529Z,4.00
2017-05-24T04:11:04.854Z,4.20
2017-05-24T04:13:33.166Z,3.56
2017-05-24T04:16:01.548Z,4.12
2017-05-24T04:18:29.836Z,4.52
2017-05-24T04:20:58.174Z,3.22
2017-05-24T04:23:26.699Z,3.48
2017-05-24T04:25:54.983Z,3.72
2017-05-24T04:28:23.292Z,4.82
2017-05-24T04:30:51.567Z,3.68
2017-05-24T04:33:19.894Z,3.62
2017-05-24T04:35:48.222Z,3.66
2017-05-24T04:38:16.543Z,4.10
2017-05-24T04:40:44.826Z,3.60
2017-05-24T04:43:13.421Z,3.70
2017-05-24T04:45:42.010Z,4.66
2017-05-24T04:48:10.323Z,3.82
2017-05-24T04:50:38.635Z,3.26
2017-05-24T04:53:06.913Z,4.20
2017-05-24T04:55:35.524Z,4.18
2017-05-24T04:58:03.821Z,3.76
2017-05-24T05:00:32.387Z,4.40
2017-05-24T05:03:00.716Z,3.62
2017-05-24T05:05:28.993Z,4.00
2017-05-24T05:07:57.627Z,4.10
2017-05-24T05:10:25.907Z,4.26
2017-05-24T05:12:54.205Z,4.04
2017-05-24T05:15:22.648Z,3.80
2017-05-24T05:17:50.948Z,4.30
2017-05-24T05:20:19.256Z,5.72
2017-05-24T05:22:47.573Z,4.92
2017-05-24T05:25:15.864Z,3.78
2017-05-24T05:27:44.178Z,4.76
2017-05-24T05:30:12.457Z,4.18
2017-05-24T05:32:40.744Z,4.62
2017-05-24T05:35:09.062Z,3.96
2017-05-24T05:37:37.361Z,3.68
2017-05-24T05:40:05.682Z,4.94
2017-05-24T05:42:34.009Z,4.20
2017-05-24T05:45:02.304Z,3.72
2017-05-24T05:47:30.627Z,2.96
2017-05-24T05:49:58.912Z,4.08
2017-05-24T05:52:27.203Z,3.48
2017-05-24T05:54:55.537Z,3.98
2017-05-24T05:57:23.825Z,3.62
2017-05-24T05:59:52.358Z,3.48
2017-05-24T06:02:20.675Z,3.58
2017-05-24T06:04:48.962Z,2.76
2017-05-24T06:07:17.267Z,3.64
2017-05-24T06:09:45.580Z,3.74
2017-05-24T06:12:14.155Z,4.14
2017-05-24T06:14:42.480Z,3.38
2017-05-24T06:17:10.791Z,3.20
2017-05-24T06:19:39.095Z,3.12
2017-05-24T06:22:07.435Z,4.72
2017-05-24T06:24:36.052Z,3.24
2017-05-24T06:27:04.638Z,3.58
2017-05-24T06:29:32.981Z,2.80
2017-05-24T06:32:01.271Z,3.26
2017-05-24T06:34:29.563Z,3.24
2017-05-24T06:36:57.882Z,3.94
2017-05-24T06:39:26.313Z,3.46
2017-05-24T06:41:54.616Z,5.18
2017-05-24T06:44:22.919Z,3.16
2017-05-24T06:46:51.231Z,3.16
2017-05-24T06:49:19.841Z,3.32
2017-05-24T06:51:48.157Z,2.82
2017-05-24T06:54:16.447Z,3.10
2017-05-24T06:56:44.784Z,3.00
2017-05-24T06:59:13.087Z,3.44
2017-05-24T07:01:41.643Z,3.00
2017-05-24T07:04:09.947Z,2.90
2017-05-24T07:06:38.244Z,3.10
2017-05-24T07:09:06.576Z,3.28
2017-05-24T07:11:34.872Z,3.66
2017-05-24T07:14:03.159Z,2.96
2017-05-24T07:16:31.812Z,4.40
2017-05-24T07:19:00.100Z,2.68
2017-05-24T07:21:28.451Z,2.20
2017-05-24T07:23:56.773Z,3.26
2017-05-24T07:26:25.073Z,2.76
2017-05-24T07:28:53.406Z,3.30
2017-05-24T07:31:21.695Z,2.64
2017-05-24T07:33:49.984Z,2.20
2017-05-24T07:36:18.307Z,2.60
2017-05-24T07:38:46.605Z,3.40
2017-05-24T07:41:14.974Z,3.18
2017-05-24T07:43:43.306Z,2.44
2017-05-24T07:46:11.605Z,3.16
2017-05-24T07:48:40.129Z,3.36
2017-05-24T07:51:08.457Z,2.86
2017-05-24T07:53:36.731Z,3.12
2017-05-24T07:56:05.021Z,2.46
2017-05-24T07:58:33.332Z,2.80
2017-05-24T08:01:01.612Z,3.12
2017-05-24T08:03:29.933Z,3.12
2017-05-24T08:05:58.582Z,2.48
2017-05-24T08:08:26.887Z,2.50
2017-05-24T08:10:55.160Z,3.54
2017-05-24T08:13:23.483Z,2.48
2017-05-24T08:15:51.777Z,2.88
2017-05-24T08:18:20.067Z,3.70
2017-05-24T08:20:48.392Z,2.88
2017-05-24T08:23:16.670Z,2.84
2017-05-24T08:25:44.959Z,3.26
2017-05-24T08:28:13.292Z,3.00
2017-05-24T08:30:41.573Z,2.60
2017-05-24T08:33:09.860Z,2.72
2017-05-24T08:35:38.303Z,3.70
2017-05-24T08:38:06.578Z,3.72
2017-05-24T08:40:34.857Z,2.86
2017-05-24T08:43:03.225Z,2.64
2017-05-24T08:45:31.551Z,3.12
2017-05-24T08:47:59.834Z,3.12
2017-05-24T08:50:28.163Z,3.60
2017-05-24T08:52:56.453Z,2.60
2017-05-24T08:55:24.748Z,3.40
2017-05-24T08:57:53.083Z,3.32
2017-05-24T09:00:21.372Z,3.70
2017-05-24T09:02:49.692Z,3.16
2017-05-24T09:05:18.020Z,3.24
2017-05-24T09:07:46.319Z,3.38
2017-05-24T09:10:14.828Z,3.38
2017-05-24T09:12:43.131Z,3.80
2017-05-24T09:15:11.446Z,2.64
2017-05-24T09:17:39.765Z,3.90
2017-05-24T09:20:08.052Z,3.28
2017-05-24T09:22:36.331Z,3.52
2017-05-24T09:25:04.689Z,4.02
2017-05-24T09:27:32.974Z,2.84
2017-05-24T09:30:01.263Z,3.54
2017-05-24T09:32:29.596Z,3.42
2017-05-24T09:34:57.884Z,2.92
2017-05-24T09:37:26.201Z,3.78
2017-05-24T09:39:54.552Z,4.18
2017-05-24T09:42:23.075Z,2.96
2017-05-24T09:44:51.359Z,3.76
2017-05-24T09:47:19.685Z,3.10
2017-05-24T09:49:47.973Z,3.98
2017-05-24T09:52:16.413Z,3.88
2017-05-24T09:54:44.738Z,4.04
2017-05-24T09:57:13.019Z,3.34
2017-05-24T09:59:41.326Z,3.48
2017-05-24T10:02:09.672Z,3.44
2017-05-24T10:04:37.947Z,4.34
2017-05-24T10:07:06.243Z,6.24
2017-05-24T10:09:34.781Z,4.12
2017-05-24T10:12:03.068Z,3.62
2017-05-24T10:14:31.369Z,3.38
2017-05-24T10:16:59.688Z,3.86
2017-05-24T10:19:27.976Z,3.40
2017-05-24T10:21:56.568Z,3.40
2017-05-24T10:24:25.156Z,3.60
2017-05-24T10:26:53.515Z,3.72
2017-05-24T10:29:21.839Z,3.56
2017-05-24T10:31:50.119Z,3.96
2017-05-24T10:34:18.424Z,3.18
2017-05-24T10:36:46.756Z,3.30
2017-05-24T10:39:15.059Z,3.30
2017-05-24T10:42:03.123Z,3.24
2017-05-24T10:44:31.748Z,3.08
2017-05-24T10:47:00.039Z,2.62
2017-05-24T10:49:28.366Z,3.20
2017-05-24T10:51:56.667Z,3.60
2017-05-24T10:54:25.000Z,3.34
2017-05-24T10:56:53.304Z,2.68
2017-05-24T10:59:21.596Z,3.92
2017-05-24T11:01:49.959Z,3.50
2017-05-24T11:04:18.251Z,2.62
2017-05-24T11:06:46.532Z,3.30
2017-05-24T11:09:14.867Z,3.28
2017-05-24T11:11:43.141Z,3.16
2017-05-24T11:14:11.477Z,3.86
2017-05-24T11:16:39.818Z,2.98
2017-05-24T11:19:08.152Z,2.68
2017-05-24T11:21:36.497Z,3.90
2017-05-24T11:24:04.823Z,2.98
2017-05-24T11:26:33.101Z,2.66
2017-05-24T11:29:01.767Z,3.98
2017-05-24T11:31:30.054Z,3.58
2017-05-24T11:33:58.356Z,2.12
2017-05-24T11:36:26.685Z,2.50
2017-05-24T11:38:54.964Z,3.42
2017-05-24T11:41:23.504Z,3.06
2017-05-24T11:43:51.811Z,2.88
2017-05-24T11:46:20.132Z,3.72
2017-05-24T11:48:48.429Z,2.52
2017-05-24T11:51:16.711Z,3.64
2017-05-24T11:53:45.062Z,2.46
2017-05-24T11:56:13.343Z,2.96
2017-05-24T11:58:41.619Z,3.18
2017-05-24T12:01:09.947Z,2.12
2017-05-24T12:03:38.248Z,2.28
2017-05-24T12:06:06.573Z,2.08
2017-05-24T12:08:35.104Z,2.26
2017-05-24T12:11:03.392Z,2.08
2017-05-24T12:13:31.721Z,2.12
2017-05-24T12:16:00.019Z,2.04
2017-05-24T12:18:28.342Z,2.34
2017-05-24T12:20:56.635Z,2.20
2017-05-24T12:23:24.931Z,2.68
2017-05-24T12:25:53.277Z,2.52
2017-05-24T12:28:21.571Z,2.66
2017-05-24T12:30:49.869Z,2.68
2017-05-24T12:33:18.423Z,2.26
2017-05-24T12:35:46.728Z,2.76
2017-05-24T12:38:15.017Z,2.22
2017-05-24T12:40:43.346Z,2.42
2017-05-24T12:43:11.682Z,2.46
2017-05-24T12:45:39.954Z,2.72
2017-05-24T12:48:08.258Z,2.18
2017-05-24T12:50:36.548Z,2.90
2017-05-24T12:53:04.871Z,2.32
2017-05-24T12:55:33.155Z,2.44
2017-05-24T12:58:01.442Z,2.40
2017-05-24T13:00:29.775Z,2.76
2017-05-24T13:02:58.077Z,2.94
2017-05-24T13:05:26.381Z,2.84
2017-05-24T13:07:54.706Z,2.48
2017-05-24T13:10:23.136Z,2.62
2017-05-24T13:12:51.457Z,3.36
2017-05-24T13:15:19.739Z,3.06
2017-05-24T13:17:48.077Z,2.50
2017-05-24T13:20:16.383Z,2.30
2017-05-24T13:22:44.723Z,2.20
2017-05-24T13:25:13.087Z,3.46
2017-05-24T13:27:41.388Z,2.28
2017-05-24T13:30:09.712Z,3.00
2017-05-24T13:32:38.160Z,3.18
2017-05-24T13:35:06.518Z,2.14
2017-05-24T13:37:34.897Z,2.30
2017-05-24T13:40:03.495Z,3.50
2017-05-24T13:42:31.783Z,3.04
2017-05-24T13:45:00.112Z,3.80
2017-05-24T13:47:28.390Z,2.66
2017-05-24T13:49:56.793Z,3.52
2017-05-24T13:52:25.119Z,1.50
2017-05-24T13:54:53.405Z,1.92
2017-05-24T13:57:21.756Z,1.92
2017-05-24T13:59:50.058Z,2.10
2017-05-24T14:02:18.350Z,2.20
2017-05-24T14:04:46.762Z,2.10
2017-05-24T14:07:15.047Z,3.32
2017-05-24T14:09:43.398Z,3.58
2017-05-24T14:12:11.692Z,2.76
2017-05-24T14:14:40.292Z,2.16
2017-05-24T14:17:08.631Z,2.36
2017-05-24T14:19:36.923Z,2.52
2017-05-24T14:22:05.227Z,2.04
2017-05-24T14:24:33.559Z,2.78
2017-05-24T14:27:01.840Z,2.60
2017-05-24T14:29:30.144Z,2.40
2017-05-24T14:31:58.476Z,2.40
2017-05-24T14:34:26.799Z,2.54
2017-05-24T14:36:55.124Z,2.04
2017-05-24T14:39:23.683Z,2.74
2017-05-24T14:41:51.971Z,2.74
2017-05-24T14:44:20.304Z,2.26
2017-05-24T14:46:48.606Z,2.54
2017-05-24T14:49:16.893Z,3.78
2017-05-24T14:51:45.250Z,2.34
2017-05-24T14:54:13.854Z,2.60
2017-05-24T14:56:42.186Z,2.46
2017-05-24T14:59:10.474Z,2.04
2017-05-24T15:01:38.765Z,2.60
2017-05-24T15:04:07.083Z,1.80
2017-05-24T15:06:35.363Z,2.30
2017-05-24T15:09:03.690Z,1.56
2017-05-24T15:11:31.963Z,2.06
2017-05-24T15:14:00.246Z,1.74
2017-05-24T15:16:28.571Z,2.10
2017-05-24T15:18:56.859Z,2.20
2017-05-24T15:21:25.143Z,1.60
2017-05-24T15:23:53.462Z,1.90
2017-05-24T15:26:21.753Z,1.64
2017-05-24T15:28:50.145Z,2.40
2017-05-24T15:31:18.426Z,2.30
2017-05-24T15:33:46.777Z,2.68
2017-05-24T15:36:15.374Z,2.04
2017-05-24T15:38:43.651Z,2.00
2017-05-24T15:41:11.973Z,1.70
2017-05-24T15:43:40.265Z,2.66
2017-05-24T15:46:08.539Z,2.08
2017-05-24T15:48:36.867Z,2.96
2017-05-24T15:51:05.444Z,2.18
2017-05-24T15:53:33.733Z,1.52
2017-05-24T15:56:02.993Z,3.12
2017-05-24T15:58:31.502Z,2.34
2017-05-24T16:00:59.798Z,2.72
2017-05-24T16:03:28.123Z,1.76
2017-05-24T16:05:56.432Z,1.82
2017-05-24T16:08:24.720Z,2.12
2017-05-24T16:10:53.060Z,2.20
2017-05-24T16:13:21.351Z,1.92
2017-05-24T16:15:49.645Z,1.42
2017-05-24T16:18:17.988Z,1.80
2017-05-24T16:20:46.274Z,2.06
2017-05-24T16:23:14.563Z,2.00
2017-05-24T16:25:42.898Z,2.12
2017-05-24T16:28:11.194Z,3.50
2017-05-24T16:30:39.483Z,2.00
2017-05-24T16:33:07.810Z,2.26
2017-05-24T16:35:36.106Z,3.26
2017-05-24T16:38:04.433Z,2.12
2017-05-24T16:40:33.037Z,2.10
2017-05-24T16:43:01.563Z,2.68
2017-05-24T16:45:29.847Z,1.94
2017-05-24T16:47:58.205Z,1.84
2017-05-24T16:50:26.513Z,2.26
2017-05-24T16:52:54.842Z,1.74
2017-05-24T16:55:23.132Z,3.42
2017-05-24T16:57:51.428Z,2.08
2017-05-24T17:00:19.734Z,1.50
2017-05-24T17:02:48.017Z,2.10
2017-05-24T17:05:16.340Z,1.80
2017-05-24T17:07:44.623Z,2.28
2017-05-24T17:10:12.949Z,1.62
2017-05-24T17:12:41.320Z,2.72
2017-05-24T17:15:09.710Z,2.30
2017-05-24T17:17:38.005Z,2.40
2017-05-24T17:20:06.587Z,2.10
2017-05-24T17:22:35.147Z,2.58
2017-05-24T17:25:03.461Z,1.60
2017-05-24T17:27:31.746Z,2.08
2017-05-24T17:30:00.028Z,2.04
2017-05-24T17:32:28.343Z,2.10
2017-05-24T17:34:56.638Z,2.66
2017-05-24T17:37:24.910Z,2.16
2017-05-24T17:39:53.210Z,1.80
2017-05-24T17:42:21.512Z,2.24
2017-05-24T17:44:50.069Z,2.12
2017-05-24T17:47:18.365Z,2.26
2017-05-24T17:49:46.660Z,2.96
2017-05-24T17:52:15.025Z,2.72
2017-05-24T17:54:43.357Z,2.76
2017-05-24T17:57:11.697Z,1.80
2017-05-24T17:59:40.244Z,2.92
2017-05-24T18:02:08.524Z,2.02
2017-05-24T18:04:36.862Z,2.30
2017-05-24T18:07:05.144Z,2.36
2017-05-24T18:09:33.760Z,2.44
2017-05-24T18:12:02.084Z,2.48
2017-05-24T18:14:30.371Z,2.22
2017-05-24T18:16:58.674Z,2.60
2017-05-24T18:19:26.984Z,2.40
2017-05-24T18:21:55.299Z,2.60
2017-05-24T18:24:23.644Z,2.84
2017-05-24T18:26:51.989Z,2.66
2017-05-24T18:29:20.372Z,2.40
2017-05-24T18:31:48.678Z,1.92
2017-05-24T18:34:16.972Z,2.28
2017-05-24T18:36:45.303Z,3.16
2017-05-24T18:39:13.609Z,2.86
2017-05-24T18:41:41.908Z,2.68
2017-05-24T18:44:10.577Z,3.60
2017-05-24T18:46:38.920Z,2.72
2017-05-24T18:49:07.196Z,2.10
2017-05-24T18:51:35.802Z,2.74
2017-05-24T18:54:04.083Z,3.20
2017-05-24T18:56:32.475Z,2.88
2017-05-24T18:59:00.773Z,4.28
2017-05-24T19:01:29.050Z,3.14
2017-05-24T19:03:57.392Z,4.62
2017-05-24T19:06:25.973Z,2.90
2017-05-24T19:08:54.259Z,3.14
2017-05-24T19:11:22.587Z,2.58
2017-05-24T19:13:50.871Z,3.30
2017-05-24T19:16:19.162Z,2.20
2017-05-24T19:18:47.493Z,4.14
2017-05-24T19:21:15.777Z,2.90
2017-05-24T19:23:44.108Z,2.92
2017-05-24T19:26:12.476Z,3.72
2017-05-24T19:28:40.760Z,3.22
2017-05-24T19:31:09.136Z,3.26
2017-05-24T19:33:37.429Z,3.34
2017-05-24T19:36:05.709Z,2.70
2017-05-24T19:38:34.037Z,2.92
2017-05-24T19:41:02.324Z,3.28
2017-05-24T19:43:30.599Z,3.62
2017-05-24T19:45:58.912Z,3.70
2017-05-24T19:48:27.267Z,2.90
2017-05-24T19:50:55.658Z,3.84
2017-05-24T19:53:23.939Z,3.18
2017-05-24T19:55:52.228Z,3.74
2017-05-24T19:58:20.572Z,2.82
2017-05-24T20:00:48.891Z,3.40
2017-05-24T20:03:17.200Z,3.44
2017-05-24T20:05:45.520Z,3.24
2017-05-24T20:08:13.815Z,4.64
2017-05-24T20:10:42.107Z,3.58
2017-05-24T20:13:10.453Z,4.12
2017-05-24T20:15:38.749Z,3.46
2017-05-24T20:18:07.035Z,3.58
2017-05-24T20:20:35.359Z,4.38
2017-05-24T20:23:03.665Z,4.54
2017-05-24T20:25:31.955Z,4.16
2017-05-24T20:28:00.293Z,3.78
2017-05-24T20:30:28.921Z,3.46
2017-05-24T20:32:57.235Z,3.72
2017-05-24T20:35:25.559Z,4.12
2017-05-24T20:37:53.893Z,4.02
2017-05-24T20:40:22.177Z,5.68
2017-05-24T20:42:50.471Z,4.50
2017-05-24T20:45:18.805Z,3.60
2017-05-24T20:47:47.090Z,3.90
2017-05-24T20:50:15.376Z,5.02
2017-05-24T20:52:44.030Z,5.66
2017-05-24T20:55:12.316Z,3.64
2017-05-24T20:57:40.683Z,3.28
2017-05-24T21:00:08.972Z,2.38
2017-05-24T21:02:37.256Z,3.06
2017-05-24T21:05:05.580Z,2.72
2017-05-24T21:07:33.864Z,3.16
2017-05-24T21:10:02.154Z,4.02
2017-05-24T21:12:30.500Z,4.30
2017-05-24T21:14:58.815Z,3.20
2017-05-24T21:17:27.136Z,2.86
2017-05-24T21:19:55.432Z,3.96
2017-05-24T21:22:23.727Z,3.14
2017-05-24T21:24:52.062Z,3.20
2017-05-24T21:27:20.360Z,3.30
2017-05-24T21:29:48.673Z,3.76
2017-05-24T21:32:17.276Z,2.66
2017-05-24T21:34:45.582Z,3.90
2017-05-24T21:37:13.916Z,3.52
2017-05-24T21:39:42.510Z,4.38
2017-05-24T21:42:10.804Z,3.58
2017-05-24T21:44:39.123Z,3.40
2017-05-24T21:47:07.401Z,3.96
2017-05-24T21:49:35.728Z,3.20
2017-05-24T21:52:04.023Z,3.82
2017-05-24T21:54:32.316Z,3.26
2017-05-24T21:57:00.647Z,4.70
2017-05-24T21:59:28.942Z,4.08
2017-05-24T22:01:57.237Z,3.40
2017-05-24T22:04:25.571Z,4.14
2017-05-24T22:06:53.914Z,3.20
2017-05-24T22:09:22.204Z,3.52
2017-05-24T22:11:50.514Z,3.84
2017-05-24T22:14:18.803Z,4.20
2017-05-24T22:16:47.135Z,3.88
2017-05-24T22:19:15.429Z,3.54
2017-05-24T22:21:43.715Z,3.86
2017-05-24T22:24:12.036Z,3.12
2017-05-24T22:26:40.328Z,4.74
2017-05-24T22:29:08.611Z,3.54
2017-05-24T22:31:37.363Z,3.90
2017-05-24T22:34:06.030Z,2.90
2017-05-24T22:36:34.337Z,3.56
2017-05-24T22:39:02.900Z,3.00
2017-05-24T22:41:31.233Z,4.60
2017-05-24T22:43:59.525Z,4.16
2017-05-24T22:46:27.830Z,4.30
2017-05-24T22:48:56.155Z,4.02
2017-05-24T22:51:24.469Z,3.52
2017-05-24T22:53:52.830Z,4.04
2017-05-24T22:56:21.234Z,4.00
2017-05-24T22:58:49.524Z,4.46
2017-05-24T23:01:17.824Z,4.72
2017-05-24T23:03:46.140Z,4.38
2017-05-24T23:06:14.437Z,3.94
2017-05-24T23:08:42.791Z,5.40
2017-05-24T23:11:11.118Z,4.00
2017-05-24T23:13:39.412Z,5.54
2017-05-24T23:16:07.970Z,4.74
2017-05-24T23:18:36.264Z,4.18
2017-05-24T23:21:04.556Z,4.80
2017-05-24T23:23:32.881Z,4.22
2017-05-24T23:26:01.159Z,4.56
2017-05-24T23:28:29.501Z,3.84
2017-05-24T23:30:57.787Z,4.68
2017-05-24T23:33:26.080Z,4.58
2017-05-24T23:35:54.412Z,4.58
2017-05-24T23:38:22.714Z,4.52
2017-05-24T23:40:51.016Z,4.40
2017-05-24T23:43:19.352Z,4.96
2017-05-24T23:45:47.666Z,6.14
2017-05-24T23:48:15.969Z,5.06
2017-05-24T23:50:44.309Z,4.74
2017-05-24T23:53:12.599Z,5.66
2017-05-24T23:55:40.888Z,4.42
2017-05-24T23:58:09.231Z,4.88
